| Record Date MM/DD/YYYY | Record Time HH:MM:SS | Record Julian Date NNN day of the year | Air Temperature Max (Degrees Fahrenheit F) | Time Max Air Temperature HH:MM:SS This is the time of max air temp for the prior hour interval listed for record [Time]. | Air Temperature Min (Degrees Fahrenheit F) | Time Min Air Temperature HH:MM:SS This is the time of min air temp for the prior hour interval listed for record [Time]. | Air Temperature Observed (Degrees Fahrenheit F) This is an instantaneous reading at the record [Time]. | Relative Humidity Max (Percent) | Time Max Relative Humidity HH:MM:SS This is the time of max relative humidity for the prior hour interval listed for record [Time]. | Relative Humidity Min (Percent) | Time Min Relative Humidity HH:MM:SS This is the time of min relative humidity for the prior hour interval listed for record [Time]. | Relative Humidity Observed (Percent) This is an instantaneous reading at the record [Time]. | Precipitation (Inches n.nn) rain fall that occurred during the prior hour interval listed for record [Time]. | Wind Speed (Miles Per Hour) Resultant Speed that occurred during the prior hour interval listed for record [Time]. | Wind Direction (Degrees) Resultant Direction that occurred during the prior hour interval listed for record [Time]. | Solar Radiation (Langley's) that occurred during the prior hour interval listed for record [Time]. | Soil Temperature Average at 2 inch depth (Degrees Fahrenheit F) that occurred during the prior hour interval listed for record [Time]. | Soil Temperature Observed at 2 inch depth (Degrees Fahrenheit F) This is an instantaneous reading at the record [Time]. | Soil Temperature Average at 4 inch depth (Degrees Fahrenheit F) that occurred during the prior hour interval listed for record [Time]. | Soil Temperature Observed at 4 inch depth (Degrees Fahrenheit F) This is an instantaneous reading at the record [Time]. |
|---|---|---|---|---|---|---|---|---|---|---|---|---|---|---|---|---|---|---|---|---|
| 04/30/2026 | 0:00:00 | 120 | 68 | 23:00:01 | 66 | 23:56:04 | 66 | 96 | 23:53:00 | 96 | 23:03:03 | 96.1 | 0.07 | 3.7 | 282 | 0 | 73 | 73 | 73 | 73 |
| 04/30/2026 | 1:00:00 | 120 | 67 | 0:00:02 | 66 | 0:57:03 | 66 | 97 | 0:53:01 | 96 | 0:33:00 | 96.4 | 0.01 | 2.4 | 306 | 0 | 73 | 73 | 73 | 73 |
| 04/30/2026 | 2:00:00 | 120 | 66 | 1:00:01 | 65 | 1:59:01 | 65 | 97 | 1:00:03 | 96 | 1:28:01 | 95.7 | 0.03 | 4.0 | 348 | 0 | 73 | 73 | 73 | 73 |
| 04/30/2026 | 3:00:00 | 120 | 65 | 2:00:03 | 63 | 2:59:00 | 63 | 96 | 2:05:01 | 94 | 2:59:05 | 94.4 | 0.05 | 4.1 | 14 | 0 | 73 | 73 | 73 | 73 |
| 04/30/2026 | 4:00:00 | 120 | 63 | 3:00:00 | 62 | 3:59:05 | 62 | 95 | 3:32:00 | 94 | 3:55:03 | 93.6 | 0.02 | 4.2 | 27 | 0 | 72 | 72 | 73 | 72 |
| 04/30/2026 | 5:00:00 | 120 | 62 | 4:02:01 | 61 | 4:46:02 | 61 | 95 | 4:58:05 | 94 | 4:00:01 | 95 | 0.02 | 4.1 | 24 | 0 | 72 | 72 | 72 | 72 |
| 04/30/2026 | 6:00:00 | 120 | 61 | 5:49:00 | 61 | 5:01:01 | 61 | 95 | 5:58:01 | 95 | 5:49:05 | 94.9 | 0 | 3.0 | 30 | 0 | 72 | 72 | 72 | 72 |
| 04/30/2026 | 7:00:00 | 120 | 62 | 6:46:02 | 61 | 6:04:01 | 62 | 95 | 6:12:02 | 94 | 6:59:02 | 93.7 | 0 | 3.2 | 42 | 3 | 72 | 71 | 72 | 72 |
| 04/30/2026 | 8:00:00 | 120 | 62 | 7:57:03 | 61 | 7:00:05 | 62 | 94 | 7:07:00 | 92 | 7:59:05 | 91.8 | 0 | 2.9 | 40 | 6 | 71 | 71 | 72 | 72 |
| 04/30/2026 | 9:00:00 | 120 | 63 | 8:41:00 | 62 | 8:18:03 | 62 | 92 | 8:00:04 | 86 | 8:50:04 | 87.1 | 0 | 4.7 | 47 | 15 | 71 | 71 | 71 | 71 |
| 04/30/2026 | 10:00:00 | 120 | 63 | 9:49:02 | 62 | 9:00:01 | 63 | 88 | 9:08:02 | 85 | 9:59:04 | 85.1 | 0 | 5.0 | 56 | 22 | 71 | 71 | 71 | 71 |
| 04/30/2026 | 11:00:00 | 120 | 65 | 10:59:02 | 63 | 10:02:04 | 64 | 87 | 10:03:03 | 81 | 10:59:05 | 80.9 | 0 | 4.9 | 64 | 28 | 71 | 71 | 71 | 71 |
| 04/30/2026 | 12:00:00 | 120 | 66 | 11:57:05 | 64 | 11:00:04 | 66 | 83 | 11:01:03 | 75 | 11:32:05 | 76.57 | 0 | 4.6 | 68 | 29 | 71 | 72 | 71 | 71 |
| 04/30/2026 | 13:00:00 | 120 | 67 | 12:53:00 | 65 | 12:11:04 | 66 | 81 | 12:23:01 | 73 | 12:44:01 | 76.07 | 0 | 4.1 | 57 | 29 | 72 | 72 | 71 | 71 |
| 04/30/2026 | 14:00:00 | 120 | 68 | 13:59:03 | 66 | 13:01:01 | 68 | 80 | 13:27:01 | 74 | 13:34:05 | 76.36 | 0 | 4.6 | 32 | 34 | 72 | 72 | 71 | 71 |
| 04/30/2026 | 15:00:00 | 120 | 68 | 14:24:04 | 67 | 14:05:03 | 68 | 78 | 14:09:03 | 70 | 14:43:00 | 72.58 | 0 | 4.0 | 41 | 35 | 72 | 72 | 71 | 72 |
| 04/30/2026 | 16:00:00 | 120 | 69 | 15:24:01 | 68 | 15:00:00 | 68 | 77 | 15:58:02 | 71 | 15:26:05 | 75.76 | 0 | 2.5 | 59 | 23 | 72 | 72 | 72 | 72 |
| 04/30/2026 | 17:00:00 | 120 | 68 | 16:00:00 | 67 | 16:58:01 | 67 | 82 | 16:57:05 | 74 | 16:07:00 | 79.16 | 0 | 1.9 | 42 | 11 | 72 | 72 | 72 | 72 |
| 04/30/2026 | 18:00:00 | 120 | 67 | 17:00:00 | 65 | 17:59:05 | 65 | 81 | 17:59:03 | 76 | 17:39:00 | 80.3 | 0 | 2.3 | 41 | 7 | 72 | 72 | 72 | 72 |
| 04/30/2026 | 19:00:00 | 120 | 65 | 18:00:00 | 63 | 18:52:05 | 63 | 88 | 18:58:03 | 79 | 18:02:04 | 86.8 | 0 | 1.7 | 22 | 1 | 72 | 72 | 72 | 72 |
| 04/30/2026 | 20:00:00 | 120 | 64 | 19:12:04 | 60 | 19:58:01 | 60 | 89 | 19:59:04 | 82 | 19:19:00 | 88.7 | 0.02 | 3.0 | 15 | 0 | 72 | 72 | 72 | 72 |
| 04/30/2026 | 21:00:00 | 120 | 60 | 20:00:00 | 60 | 20:23:02 | 60 | 91 | 20:24:02 | 89 | 20:01:05 | 89.4 | 0.02 | 2.3 | 80 | 0 | 72 | 71 | 72 | 71 |
| 04/30/2026 | 22:00:00 | 120 | 60 | 21:06:01 | 59 | 21:27:03 | 59 | 92 | 21:57:05 | 88 | 21:11:00 | 92 | 0 | 2.5 | 39 | 0 | 71 | 71 | 71 | 71 |
| 04/30/2026 | 23:00:00 | 120 | 59 | 22:17:03 | 59 | 22:55:05 | 59 | 94 | 22:48:05 | 92 | 22:00:04 | 94.2 | 0.01 | 0.6 | 76 | 0 | 71 | 71 | 71 | 71 |
| 05/01/2026 | 0:00:00 | 121 | 59 | 23:08:03 | 59 | 23:46:01 | 59 | 95 | 23:08:03 | 92 | 23:56:00 | 92.5 | 0 | 1.0 | 23 | 0 | 71 | 70 | 71 | 71 |
| 05/01/2026 | 1:00:00 | 121 | 59 | 0:34:00 | 59 | 0:00:02 | 59 | 93 | 0:31:02 | 92 | 0:54:01 | 92.3 | 0 | 0.8 | 61 | 0 | 70 | 70 | 71 | 71 |
| 05/01/2026 | 2:00:00 | 121 | 59 | 1:37:02 | 58 | 1:58:01 | 58 | 93 | 1:37:01 | 92 | 1:10:01 | 92.8 | 0 | 0.8 | 34 | 0 | 70 | 70 | 70 | 70 |
| 05/01/2026 | 3:00:00 | 121 | 59 | 2:04:04 | 58 | 2:59:05 | 58 | 93 | 2:15:04 | 91 | 2:42:01 | 90.8 | 0 | 1.9 | 33 | 0 | 70 | 70 | 70 | 70 |
| 05/01/2026 | 4:00:00 | 121 | 58 | 3:01:05 | 57 | 3:52:05 | 58 | 91 | 3:50:01 | 90 | 3:54:03 | 90.6 | 0 | 2.6 | 20 | 0 | 70 | 70 | 70 | 70 |
| 05/01/2026 | 5:00:00 | 121 | 58 | 4:00:02 | 56 | 4:59:00 | 56 | 92 | 4:57:05 | 89 | 4:42:00 | 91.9 | 0.01 | 2.2 | 25 | 0 | 69 | 69 | 70 | 70 |
| 05/01/2026 | 6:00:00 | 121 | 56 | 5:01:00 | 56 | 5:38:01 | 56 | 93 | 5:36:05 | 91 | 5:17:01 | 91.7 | 0 | 1.9 | 43 | 0 | 69 | 69 | 70 | 70 |
| 05/01/2026 | 7:00:00 | 121 | 56 | 6:56:01 | 56 | 6:00:00 | 56 | 93 | 6:27:02 | 92 | 6:13:00 | 91.8 | 0 | 1.9 | 21 | 2 | 69 | 69 | 70 | 70 |
| 05/01/2026 | 8:00:00 | 121 | 57 | 7:40:02 | 56 | 7:01:05 | 56 | 92 | 7:01:01 | 88 | 7:30:03 | 89.9 | 0 | 2.4 | 26 | 4 | 69 | 69 | 69 | 69 |
| 05/01/2026 | 9:00:00 | 121 | 57 | 8:09:00 | 56 | 8:55:00 | 56 | 91 | 8:50:04 | 90 | 8:01:01 | 90.9 | 0.02 | 2.6 | 18 | 6 | 69 | 69 | 69 | 69 |
| 05/01/2026 | 10:00:00 | 121 | 57 | 9:58:04 | 56 | 9:00:05 | 57 | 91 | 9:06:04 | 88 | 9:25:04 | 88.9 | 0.02 | 1.4 | 25 | 11 | 69 | 69 | 69 | 69 |
| 05/01/2026 | 11:00:00 | 121 | 57 | 10:58:00 | 56 | 10:09:04 | 57 | 90 | 10:47:03 | 87 | 10:31:05 | 89.7 | 0.01 | 1.7 | 73 | 14 | 69 | 69 | 69 | 69 |
| 05/01/2026 | 12:00:00 | 121 | 58 | 11:45:03 | 57 | 11:20:02 | 57 | 92 | 11:54:02 | 89 | 11:01:03 | 91.3 | 0.02 | 2.6 | 8 | 14 | 69 | 69 | 69 | 69 |
| 05/01/2026 | 13:00:00 | 121 | 58 | 12:18:04 | 57 | 12:37:00 | 57 | 93 | 12:10:05 | 91 | 12:58:00 | 91.4 | 0.02 | 3.7 | 0 | 13 | 69 | 69 | 69 | 69 |
| 05/01/2026 | 14:00:00 | 121 | 58 | 13:54:01 | 57 | 13:04:03 | 58 | 92 | 13:14:02 | 90 | 13:46:00 | 90.9 | 0.02 | 1.9 | 20 | 16 | 69 | 69 | 69 | 69 |
| 05/01/2026 | 15:00:00 | 121 | 58 | 14:06:03 | 58 | 14:01:03 | 58 | 91 | 14:06:02 | 88 | 14:53:01 | 89.4 | 0 | 1.1 | 46 | 10 | 69 | 69 | 69 | 69 |
| 05/01/2026 | 16:00:00 | 121 | 58 | 15:00:03 | 57 | 15:45:03 | 58 | 92 | 16:00:00 | 89 | 15:02:00 | 92.4 | 0.02 | 1.3 | 28 | 5 | 69 | 69 | 69 | 69 |
| 05/01/2026 | 17:00:00 | 121 | 58 | 16:05:02 | 57 | 16:31:01 | 57 | 94 | 16:36:01 | 92 | 16:00:00 | 94.1 | 0.01 | 2.1 | 65 | 4 | 69 | 69 | 69 | 69 |
| 05/01/2026 | 18:00:00 | 121 | 58 | 17:42:03 | 57 | 17:06:00 | 58 | 96 | 17:59:03 | 94 | 17:00:02 | 95.5 | 0.01 | 1.9 | 2 | 1 | 68 | 68 | 69 | 69 |
| 05/01/2026 | 19:00:00 | 121 | 58 | 18:07:01 | 57 | 18:58:02 | 57 | 96 | 18:07:02 | 95 | 18:58:04 | 94.9 | 0.01 | 0.8 | 13 | 0 | 68 | 68 | 69 | 69 |
| 05/01/2026 | 20:00:00 | 121 | 57 | 19:00:05 | 57 | 19:35:02 | 57 | 96 | 19:58:04 | 95 | 19:02:00 | 95.6 | 0.01 | 0.8 | 359 | 0 | 68 | 68 | 69 | 69 |
| 05/01/2026 | 21:00:00 | 121 | 57 | 20:07:03 | 57 | 20:59:01 | 57 | 96 | 20:50:00 | 96 | 20:00:01 | 96.1 | 0 | 0.6 | 346 | 0 | 68 | 68 | 68 | 68 |
| 05/01/2026 | 22:00:00 | 121 | 57 | 21:10:00 | 56 | 21:54:02 | 56 | 97 | 21:59:00 | 96 | 21:07:05 | 96.6 | 0.01 | 0.3 | 64 | 0 | 68 | 68 | 68 | 68 |
| 05/01/2026 | 23:00:00 | 121 | 57 | 22:03:05 | 56 | 22:46:03 | 56 | 97 | 22:03:00 | 96 | 22:46:02 | 96.4 | 0.02 | 1.4 | 310 | 0 | 68 | 67 | 68 | 68 |
| 05/02/2026 | 0:00:00 | 122 | 56 | 23:00:04 | 56 | 23:59:00 | 56 | 96 | 23:01:01 | 95 | 23:59:03 | 95 | 0.01 | 2.2 | 354 | 0 | 67 | 67 | 68 | 68 |
| 05/02/2026 | 1:00:00 | 122 | 56 | 0:02:02 | 55 | 0:52:03 | 56 | 96 | 0:58:01 | 94 | 0:27:01 | 95.3 | 0.02 | 1.5 | 18 | 0 | 67 | 67 | 68 | 68 |
| 05/02/2026 | 2:00:00 | 122 | 56 | 1:00:01 | 55 | 1:21:02 | 55 | 96 | 1:29:01 | 94 | 1:59:01 | 93.6 | 0.01 | 2.3 | 18 | 0 | 67 | 67 | 68 | 68 |
| 05/02/2026 | 3:00:00 | 122 | 55 | 2:00:01 | 55 | 2:47:01 | 55 | 95 | 2:55:03 | 93 | 2:23:04 | 94 | 0 | 1.2 | 27 | 0 | 67 | 67 | 68 | 68 |
| 05/02/2026 | 4:00:00 | 122 | 55 | 3:02:05 | 54 | 3:59:02 | 54 | 94 | 3:00:04 | 92 | 3:58:02 | 92.1 | 0 | 3.4 | 5 | 0 | 67 | 67 | 67 | 67 |
| 05/02/2026 | 5:00:00 | 122 | 54 | 4:00:01 | 54 | 4:58:02 | 54 | 92 | 4:03:02 | 87 | 5:00:00 | 87.3 | 0 | 2.3 | 17 | 0 | 67 | 67 | 67 | 67 |
| 05/02/2026 | 6:00:00 | 122 | 54 | 5:00:01 | 53 | 5:30:04 | 54 | 91 | 5:59:05 | 87 | 5:00:00 | 91.1 | 0 | 1.4 | 15 | 1 | 66 | 66 | 67 | 67 |
| 05/02/2026 | 7:00:00 | 122 | 55 | 6:59:02 | 53 | 6:02:02 | 55 | 91 | 6:03:01 | 87 | 6:50:00 | 88.2 | 0 | 2.7 | 1 | 9 | 66 | 66 | 67 | 67 |
| 05/02/2026 | 8:00:00 | 122 | 60 | 7:59:05 | 55 | 7:04:00 | 60 | 88 | 7:00:03 | 68 | 7:58:04 | 69.54 | 0 | 4.9 | 5 | 37 | 66 | 66 | 67 | 67 |
| 05/02/2026 | 9:00:00 | 122 | 62 | 8:56:01 | 59 | 8:19:02 | 62 | 74 | 8:22:03 | 56 | 8:57:01 | 59.69 | 0 | 4.9 | 16 | 48 | 66 | 67 | 67 | 67 |
| Average | 60.26 | 59.16 | 59.64 | 91.29 | 87.79 | 89.26 | 0.01 | 2.53 | 7.55 | 69.78 | 69.74 | 70.02 | 70 | |||||||
| Total | 0.5 |